CA-0103 weather

CLOSED Crater Airport
Manitoba, Canada

Public forecast

Using degrees Celsius for public forecast. Weather courtesy of forecast.io.

Closest aviation weather report (METAR) to Crater Airport

Closest report is Brandon Municipal Airport, 5.9 nm (10.9 km) W. Retrieved 2019/10/23 09:00 UTC (10 minutes ago):

CYBR 230900Z 30007KT 15SM SKC M05/M07 A2988 RMK SLP141

Closest aviation forecast (TAF) to Crater Airport

Closest forecast is Brandon Municipal Airport, 5.9 nm (10.9 km) W. Retrieved 2019/10/23 06:42 UTC (2 hours ago):

TAF CYBR 230538Z 2306/2318 30008KT P6SM SKC BECMG 2315/2317 33015G25KT RMK NXT FCST BY 231200Z